Time;durP1;ratioP1;P1;durP2;ratioP2;P2;SDS_P1;SDS_P2;PMS_P1;PMS_P2;Temp;Humidity;BMP_temperature;BMP_pressure;BME280_temperature;BME280_humidity;BME280_pressure;Samples;Min_cycle;Max_cycle;Signal;HPM_P1;HPM_P2
2022/07/11 00:01:51;;;;;;;;;;;23.60;99.90;;;;;;5092283;28;19915;-73
2022/07/11 00:04:17;;;;;;;;;;;23.60;99.90;;;;;;5091203;28;19921;-74
2022/07/11 00:06:43;;;;;;;;;;;23.50;99.90;;;;;;5092089;28;19903;-74
2022/07/11 00:09:15;;;;;;;;;;;23.50;99.90;;;;;;5091881;28;20371;-74
2022/07/11 00:11:40;;;;;;;;;;;23.50;99.90;;;;;;5089913;28;19970;-73
2022/07/11 00:14:06;;;;;;;;;;;23.40;99.90;;;;;;5091575;28;19912;-73
2022/07/11 00:16:32;;;;;;;;;;;23.40;99.90;;;;;;5091469;28;19984;-72
2022/07/11 00:18:58;;;;;;;;;;;23.40;99.90;;;;;;5091836;28;20326;-73
2022/07/11 00:21:24;;;;;;;;;;;23.30;99.90;;;;;;5091606;28;20234;-74
2022/07/11 00:23:49;;;;;;;;;;;23.20;99.90;;;;;;5091695;28;19904;-73
2022/07/11 00:26:15;;;;;;;;;;;23.20;99.90;;;;;;5091448;28;19907;-74
2022/07/11 00:28:41;;;;;;;;;;;23.20;99.90;;;;;;5091470;28;19942;-74
2022/07/11 00:31:08;;;;;;;;;;;23.20;99.90;;;;;;5091685;28;20365;-74
2022/07/11 00:33:34;;;;;;;;;;;23.20;99.90;;;;;;5091308;28;20348;-74
2022/07/11 00:36:00;;;;;;;;;;;23.20;99.90;;;;;;5089728;28;19915;-74
2022/07/11 00:38:25;;;;;;;;;;;23.20;99.90;;;;;;5091565;28;19904;-73
2022/07/11 00:41:00;;;;;;;;;;;23.20;99.90;;;;;;5091700;28;20250;-75
2022/07/11 00:43:32;;;;;;;;;;;23.20;99.90;;;;;;5091419;28;19911;-74
2022/07/11 00:45:58;;;;;;;;;;;23.20;99.90;;;;;;5091417;28;20230;-73
2022/07/11 00:48:24;;;;;;;;;;;23.10;99.90;;;;;;5091164;28;20067;-74
2022/07/11 00:50:50;;;;;;;;;;;23.10;99.90;;;;;;5091342;28;20316;-74
2022/07/11 00:53:17;;;;;;;;;;;23.10;99.90;;;;;;5091231;28;19943;-74
2022/07/11 00:55:43;;;;;;;;;;;23.00;99.90;;;;;;5089657;28;19904;-74
2022/07/11 00:58:09;;;;;;;;;;;23.00;99.90;;;;;;5091073;28;19904;-74
2022/07/11 01:00:35;;;;;;;;;;;23.00;99.90;;;;;;5091293;28;20221;-74
2022/07/11 01:03:00;;;;;;;;;;;23.00;99.90;;;;;;5091219;28;19911;-74
2022/07/11 01:05:27;;;;;;;;;;;23.00;99.90;;;;;;5090996;28;19954;-74
2022/07/11 01:07:54;;;;;;;;;;;23.10;99.90;;;;;;5091169;28;19923;-74
2022/07/11 01:10:20;;;;;;;;;;;23.00;99.90;;;;;;5090854;28;20036;-74
2022/07/11 01:12:46;;;;;;;;;;;23.00;99.90;;;;;;5090701;28;19967;-74
2022/07/11 01:15:14;;;;;;;;;;;23.00;99.90;;;;;;5091353;28;20443;-74
2022/07/11 01:17:39;;;;;;;;;;;23.00;99.90;;;;;;5093807;28;20327;-74
2022/07/11 01:20:06;;;;;;;;;;;23.00;99.90;;;;;;5093405;28;19904;-74
2022/07/11 01:22:34;;;;;;;;;;;23.00;99.90;;;;;;5093418;28;19994;-74
2022/07/11 01:25:01;;;;;;;;;;;22.90;99.90;;;;;;5095064;28;19912;-74
2022/07/11 01:27:27;;;;;;;;;;;22.70;99.90;;;;;;5095082;28;20002;-74
2022/07/11 01:29:53;;;;;;;;;;;22.70;99.90;;;;;;5092830;28;19927;-74
2022/07/11 01:32:20;;;;;;;;;;;22.70;99.90;;;;;;5094873;28;19904;-74
2022/07/11 01:34:47;;;;;;;;;;;22.70;99.90;;;;;;5094709;28;19911;-74
2022/07/11 01:37:13;;;;;;;;;;;22.60;99.90;;;;;;5095075;28;19911;-74
2022/07/11 01:39:38;;;;;;;;;;;22.60;99.90;;;;;;5094549;28;19916;-74
2022/07/11 01:42:04;;;;;;;;;;;22.60;99.90;;;;;;5093061;28;20035;-74
2022/07/11 01:44:30;;;;;;;;;;;22.50;99.90;;;;;;5094559;28;19964;-74
2022/07/11 01:46:56;;;;;;;;;;;22.50;99.90;;;;;;5094271;28;19912;-74
2022/07/11 01:49:22;;;;;;;;;;;22.40;99.90;;;;;;5094663;28;19904;-74
2022/07/11 01:51:48;;;;;;;;;;;22.40;99.90;;;;;;5094732;28;19910;-74
2022/07/11 01:54:15;;;;;;;;;;;22.40;99.90;;;;;;5094276;28;19951;-74
2022/07/11 01:56:41;;;;;;;;;;;22.50;99.90;;;;;;5094618;28;20000;-73
2022/07/11 01:59:07;;;;;;;;;;;22.50;99.90;;;;;;5094587;28;19996;-74
2022/07/11 02:01:32;;;;;;;;;;;22.50;99.90;;;;;;5092941;28;19927;-73
2022/07/11 02:03:59;;;;;;;;;;;22.50;99.90;;;;;;5092702;28;20240;-74
2022/07/11 02:06:25;;;;;;;;;;;22.40;99.90;;;;;;5094419;28;19919;-74
2022/07/11 02:08:50;;;;;;;;;;;22.40;99.90;;;;;;5094180;28;19998;-74
2022/07/11 02:11:16;;;;;;;;;;;22.40;99.90;;;;;;5093140;28;19904;-73
2022/07/11 02:13:42;;;;;;;;;;;22.40;99.90;;;;;;5093946;28;19989;-74
2022/07/11 02:16:08;;;;;;;;;;;22.40;99.90;;;;;;5093627;28;20286;-74
2022/07/11 02:18:34;;;;;;;;;;;22.40;99.90;;;;;;5091385;28;19991;-74
2022/07/11 02:21:00;;;;;;;;;;;22.20;99.90;;;;;;5091798;28;19904;-74
2022/07/11 02:23:26;;;;;;;;;;;22.20;99.90;;;;;;5093851;28;20332;-73
2022/07/11 02:25:53;;;;;;;;;;;22.20;99.90;;;;;;5093516;28;19962;-74
2022/07/11 02:28:18;;;;;;;;;;;22.20;99.90;;;;;;5093661;28;19978;-73
2022/07/11 02:30:45;;;;;;;;;;;22.10;99.90;;;;;;5093372;28;19967;-73
2022/07/11 02:33:15;;;;;;;;;;;22.20;99.90;;;;;;5093700;28;19995;-74
2022/07/11 02:35:42;;;;;;;;;;;22.30;99.90;;;;;;5093420;28;20198;-74
2022/07/11 02:38:08;;;;;;;;;;;22.30;99.90;;;;;;5093529;28;19904;-73
2022/07/11 02:40:34;;;;;;;;;;;22.20;99.90;;;;;;5093467;28;19923;-73
2022/07/11 02:43:00;;;;;;;;;;;22.30;99.90;;;;;;5093242;28;19903;-74
2022/07/11 02:45:26;;;;;;;;;;;22.30;99.90;;;;;;5093145;28;19912;-73
2022/07/11 02:47:51;;;;;;;;;;;22.20;99.90;;;;;;5093261;28;19904;-73
2022/07/11 02:50:17;;;;;;;;;;;22.10;99.90;;;;;;5093174;28;20267;-74
2022/07/11 02:52:43;;;;;;;;;;;22.10;99.90;;;;;;5093400;28;19938;-73
2022/07/11 02:55:10;;;;;;;;;;;22.00;99.90;;;;;;5093356;28;20336;-73
2022/07/11 02:57:38;;;;;;;;;;;21.90;99.90;;;;;;5093104;28;19911;-73
2022/07/11 03:00:04;;;;;;;;;;;21.80;99.90;;;;;;5092885;28;19956;-74
2022/07/11 03:02:31;;;;;;;;;;;21.80;99.90;;;;;;5093120;28;20354;-74
2022/07/11 03:04:57;;;;;;;;;;;21.90;99.90;;;;;;5093151;28;19912;-74
2022/07/11 03:07:26;;;;;;;;;;;22.00;99.90;;;;;;5093135;28;19910;-74
2022/07/11 03:09:52;;;;;;;;;;;22.10;99.90;;;;;;5093140;28;20351;-74
2022/07/11 03:12:18;;;;;;;;;;;22.10;99.90;;;;;;5093032;28;19912;-74
2022/07/11 03:14:44;;;;;;;;;;;22.30;99.90;;;;;;5093127;28;19923;-74
2022/07/11 03:17:10;;;;;;;;;;;22.40;99.90;;;;;;5091482;28;20328;-74
2022/07/11 03:19:36;;;;;;;;;;;22.50;99.90;;;;;;5091368;28;19911;-74
2022/07/11 03:22:03;;;;;;;;;;;22.60;99.90;;;;;;5093295;28;20328;-74
2022/07/11 03:24:29;;;;;;;;;;;22.70;99.90;;;;;;5093087;28;20400;-74
2022/07/11 03:26:54;;;;;;;;;;;22.80;99.90;;;;;;5093172;28;20018;-74
2022/07/11 03:29:20;;;;;;;;;;;22.80;99.90;;;;;;5093250;28;19904;-74
2022/07/11 03:31:46;;;;;;;;;;;22.70;99.90;;;;;;5093019;28;19939;-74
2022/07/11 03:34:12;;;;;;;;;;;22.70;99.90;;;;;;5093490;28;19930;-74
2022/07/11 03:36:38;;;;;;;;;;;22.70;99.90;;;;;;5093122;28;19904;-74
2022/07/11 03:39:04;;;;;;;;;;;22.80;99.90;;;;;;5092538;28;20368;-74
2022/07/11 03:41:29;;;;;;;;;;;22.80;99.90;;;;;;5093063;28;19911;-74
2022/07/11 03:43:56;;;;;;;;;;;22.90;99.90;;;;;;5093318;28;19930;-74
2022/07/11 03:46:22;;;;;;;;;;;22.90;99.90;;;;;;5091650;28;19908;-74
2022/07/11 03:48:48;;;;;;;;;;;22.90;99.90;;;;;;5093242;28;19977;-74
2022/07/11 03:51:14;;;;;;;;;;;23.00;99.90;;;;;;5092912;28;19908;-74
2022/07/11 03:53:40;;;;;;;;;;;23.00;99.90;;;;;;5090354;28;19904;-74
2022/07/11 03:56:05;;;;;;;;;;;23.00;99.90;;;;;;5092076;28;19931;-74
2022/07/11 03:58:31;;;;;;;;;;;22.90;99.90;;;;;;5091935;28;19927;-74
2022/07/11 04:00:57;;;;;;;;;;;22.90;99.90;;;;;;5091710;28;20045;-73
2022/07/11 04:03:25;;;;;;;;;;;22.90;99.90;;;;;;5091983;28;19904;-74
2022/07/11 04:05:51;;;;;;;;;;;22.90;99.90;;;;;;5092425;28;20351;-73
2022/07/11 04:08:17;;;;;;;;;;;23.00;99.90;;;;;;5092156;28;19942;-74
2022/07/11 04:10:43;;;;;;;;;;;22.90;99.90;;;;;;5092677;28;20290;-74
2022/07/11 04:13:09;;;;;;;;;;;23.00;99.90;;;;;;5092521;28;19969;-73
2022/07/11 04:15:35;;;;;;;;;;;23.10;99.90;;;;;;5092516;28;20268;-74
2022/07/11 04:18:01;;;;;;;;;;;23.10;99.90;;;;;;5092679;28;19995;-74
2022/07/11 04:20:27;;;;;;;;;;;23.10;99.90;;;;;;5092567;28;20272;-74
2022/07/11 04:22:52;;;;;;;;;;;23.20;99.90;;;;;;5093499;28;19961;-74
2022/07/11 04:25:18;;;;;;;;;;;23.20;99.90;;;;;;5093675;28;19919;-74
2022/07/11 04:27:44;;;;;;;;;;;23.20;99.90;;;;;;5091293;28;19904;-74
2022/07/11 04:30:10;;;;;;;;;;;23.20;99.90;;;;;;5093408;28;20223;-73
2022/07/11 04:32:36;;;;;;;;;;;23.20;99.90;;;;;;5092665;28;19904;-73
2022/07/11 04:35:02;;;;;;;;;;;23.10;99.90;;;;;;5092743;28;20309;-74
2022/07/11 04:37:28;;;;;;;;;;;23.10;99.90;;;;;;5092622;28;20267;-74
2022/07/11 04:39:54;;;;;;;;;;;23.20;99.90;;;;;;5093258;28;19999;-74
2022/07/11 04:42:20;;;;;;;;;;;23.30;99.90;;;;;;5093318;28;19951;-73
2022/07/11 04:44:46;;;;;;;;;;;23.40;99.90;;;;;;5093642;28;19908;-74
2022/07/11 04:47:11;;;;;;;;;;;23.50;99.90;;;;;;5091771;28;19951;-74
2022/07/11 04:49:37;;;;;;;;;;;23.50;99.90;;;;;;5093460;28;19904;-74
2022/07/11 04:52:04;;;;;;;;;;;23.50;99.90;;;;;;5093072;28;19991;-73
2022/07/11 04:54:29;;;;;;;;;;;23.40;99.90;;;;;;5093016;28;19904;-74
2022/07/11 04:56:56;;;;;;;;;;;23.30;99.90;;;;;;5093478;28;20011;-74
2022/07/11 04:59:23;;;;;;;;;;;23.30;99.90;;;;;;5092624;28;19904;-74
2022/07/11 05:01:50;;;;;;;;;;;23.50;99.90;;;;;;5093057;28;20294;-74
2022/07/11 05:04:16;;;;;;;;;;;23.60;99.90;;;;;;5091121;28;20269;-74
2022/07/11 05:06:42;;;;;;;;;;;23.80;99.90;;;;;;5092935;28;19910;-74
2022/07/11 05:09:07;;;;;;;;;;;24.80;99.90;;;;;;5093108;28;19904;-74
2022/07/11 05:11:34;;;;;;;;;;;26.80;99.90;;;;;;5092894;28;19926;-74
2022/07/11 05:14:00;;;;;;;;;;;28.70;98.30;;;;;;5091995;28;20415;-73
2022/07/11 05:16:27;;;;;;;;;;;30.20;94.90;;;;;;5091864;28;20316;-73
2022/07/11 05:18:53;;;;;;;;;;;32.00;93.10;;;;;;5091967;28;20037;-74
2022/07/11 05:21:22;;;;;;;;;;;33.30;89.00;;;;;;5092363;28;20359;-74
2022/07/11 05:23:48;;;;;;;;;;;34.30;85.20;;;;;;5091861;28;19946;-73
2022/07/11 05:26:14;;;;;;;;;;;35.50;82.10;;;;;;5092131;28;19920;-74
2022/07/11 05:28:41;;;;;;;;;;;37.00;78.10;;;;;;5091658;28;19923;-74
2022/07/11 05:31:06;;;;;;;;;;;37.50;75.20;;;;;;5091997;28;20374;-74
2022/07/11 05:33:34;;;;;;;;;;;38.40;73.10;;;;;;5092058;28;19905;-74
2022/07/11 05:35:59;;;;;;;;;;;39.20;70.80;;;;;;5090715;28;20003;-74
2022/07/11 05:38:25;;;;;;;;;;;39.30;67.70;;;;;;5092338;28;19992;-74
2022/07/11 05:40:51;;;;;;;;;;;40.00;67.30;;;;;;5092109;28;19911;-74
2022/07/11 05:43:17;;;;;;;;;;;40.60;64.50;;;;;;5092104;28;19904;-74
2022/07/11 05:45:44;;;;;;;;;;;41.10;63.50;;;;;;5092328;28;19966;-75
2022/07/11 05:48:09;;;;;;;;;;;41.60;62.10;;;;;;5092132;28;19904;-74
2022/07/11 05:50:35;;;;;;;;;;;42.10;61.00;;;;;;5091725;28;19912;-74
2022/07/11 05:53:02;;;;;;;;;;;41.60;58.00;;;;;;5090324;28;19911;-74
2022/07/11 05:55:30;;;;;;;;;;;39.60;60.80;;;;;;5091672;28;20231;-74
2022/07/11 05:57:56;;;;;;;;;;;39.10;60.80;;;;;;5092210;28;19911;-75
2022/07/11 06:00:25;;;;;;;;;;;38.30;60.60;;;;;;5091334;28;19987;-74
2022/07/11 06:02:51;;;;;;;;;;;36.70;62.80;;;;;;5092725;28;19912;-75
2022/07/11 06:05:17;;;;;;;;;;;37.20;64.20;;;;;;5095127;28;19965;-75
2022/07/11 06:10:27;;;;;;;;;;;37.10;62.50;;;;;;5095177;28;19926;-75
2022/07/11 06:12:53;;;;;;;;;;;37.90;62.10;;;;;;5094589;28;19916;-75
2022/07/11 06:15:19;;;;;;;;;;;38.80;59.90;;;;;;5095139;28;19904;-75
2022/07/11 06:17:45;;;;;;;;;;;37.50;61.50;;;;;;5095236;28;19939;-75
2022/07/11 06:20:11;;;;;;;;;;;37.30;62.10;;;;;;5095477;28;19904;-74
2022/07/11 06:22:37;;;;;;;;;;;36.40;63.10;;;;;;5095967;28;20371;-75
2022/07/11 06:25:03;;;;;;;;;;;37.40;63.30;;;;;;5095459;28;19912;-75
2022/07/11 06:27:29;;;;;;;;;;;37.70;61.60;;;;;;5095369;28;19943;-75
2022/07/11 06:29:55;;;;;;;;;;;37.40;62.20;;;;;;5095997;28;19948;-75
2022/07/11 06:32:20;;;;;;;;;;;36.50;63.50;;;;;;5095359;28;20289;-75
2022/07/11 06:34:46;;;;;;;;;;;37.30;63.70;;;;;;5095212;28;19921;-75
2022/07/11 06:37:12;;;;;;;;;;;37.00;62.30;;;;;;5095835;28;19946;-74
2022/07/11 06:39:38;;;;;;;;;;;36.30;63.40;;;;;;5095240;28;19908;-74
2022/07/11 06:42:04;;;;;;;;;;;35.80;65.00;;;;;;5095664;28;19904;-75
2022/07/11 06:44:30;;;;;;;;;;;37.10;62.80;;;;;;5094278;28;19908;-74
2022/07/11 06:46:56;;;;;;;;;;;37.10;62.50;;;;;;5095209;28;19964;-74
2022/07/11 06:49:22;;;;;;;;;;;35.80;64.70;;;;;;5095520;28;19904;-74
2022/07/11 06:51:48;;;;;;;;;;;35.20;66.10;;;;;;5095167;28;19911;-75
2022/07/11 06:54:13;;;;;;;;;;;36.00;65.00;;;;;;5095017;28;20284;-74
2022/07/11 06:56:39;;;;;;;;;;;36.20;65.40;;;;;;5095144;28;19904;-75
2022/07/11 06:59:05;;;;;;;;;;;36.20;65.20;;;;;;5095427;28;19908;-75
2022/07/11 07:01:31;;;;;;;;;;;37.60;63.10;;;;;;5094854;28;19904;-75
2022/07/11 07:03:57;;;;;;;;;;;38.50;62.10;;;;;;5095539;28;19904;-75
2022/07/11 07:06:22;;;;;;;;;;;39.70;60.30;;;;;;5094979;28;19926;-75
2022/07/11 07:08:48;;;;;;;;;;;39.80;59.70;;;;;;5095599;28;20033;-75
2022/07/11 07:11:14;;;;;;;;;;;38.20;61.30;;;;;;5094769;28;20010;-75
2022/07/11 07:13:40;;;;;;;;;;;37.70;62.40;;;;;;5093897;28;19916;-75
2022/07/11 07:16:06;;;;;;;;;;;36.70;64.50;;;;;;5094515;28;20385;-74
2022/07/11 07:18:32;;;;;;;;;;;36.90;64.60;;;;;;5094535;28;20351;-75
2022/07/11 07:20:58;;;;;;;;;;;37.30;65.00;;;;;;5094603;28;19904;-75
2022/07/11 07:23:25;;;;;;;;;;;36.50;65.10;;;;;;5094644;28;19904;-75
2022/07/11 07:25:50;;;;;;;;;;;36.10;66.10;;;;;;5094429;28;19912;-75
2022/07/11 07:28:16;;;;;;;;;;;35.50;67.50;;;;;;5094617;28;19915;-75
2022/07/11 07:30:42;;;;;;;;;;;35.90;67.40;;;;;;5094994;28;20259;-75
2022/07/11 07:33:11;;;;;;;;;;;35.90;66.40;;;;;;5094387;28;19949;-75
2022/07/11 07:35:36;;;;;;;;;;;35.00;67.80;;;;;;5094300;28;19903;-74
2022/07/11 07:38:02;;;;;;;;;;;35.10;68.00;;;;;;5094205;28;19904;-76
2022/07/11 07:40:28;;;;;;;;;;;34.90;68.50;;;;;;5094070;28;19904;-75
2022/07/11 07:42:54;;;;;;;;;;;34.80;67.70;;;;;;5094319;28;19904;-75
2022/07/11 07:45:20;;;;;;;;;;;34.50;68.20;;;;;;5093933;28;19912;-75
2022/07/11 07:47:46;;;;;;;;;;;33.80;69.50;;;;;;5092597;28;19908;-74
2022/07/11 07:50:12;;;;;;;;;;;33.50;69.50;;;;;;5093153;28;20345;-75
2022/07/11 07:52:37;;;;;;;;;;;33.90;69.50;;;;;;5093081;28;19950;-74
2022/07/11 07:55:04;;;;;;;;;;;33.40;70.00;;;;;;5093372;28;20012;-75
2022/07/11 07:57:30;;;;;;;;;;;32.20;71.60;;;;;;5093030;28;19939;-75
2022/07/11 08:01:34;;;;;;;;;;;32.10;72.60;;;;;;5093081;28;19941;-75
2022/07/11 08:02:42;;;;;;;;;;;32.10;72.70;;;;;;5092888;28;20018;-74
2022/07/11 08:05:09;;;;;;;;;;;32.30;72.60;;;;;;5093193;28;20003;-74
2022/07/11 08:07:35;;;;;;;;;;;31.90;73.00;;;;;;5093078;28;19929;-75
2022/07/11 08:10:02;;;;;;;;;;;32.30;72.20;;;;;;5091436;28;19912;-75
2022/07/11 08:12:28;;;;;;;;;;;32.40;71.90;;;;;;5091162;28;19998;-74
2022/07/11 08:14:53;;;;;;;;;;;31.20;73.80;;;;;;5093034;28;20307;-75
2022/07/11 08:17:19;;;;;;;;;;;31.20;75.20;;;;;;5091805;28;20317;-75
2022/07/11 08:19:45;;;;;;;;;;;31.30;73.50;;;;;;5093899;28;20009;-75
2022/07/11 08:22:11;;;;;;;;;;;31.60;74.10;;;;;;5093469;28;19946;-75
2022/07/11 08:24:37;;;;;;;;;;;32.00;72.60;;;;;;5093082;28;19947;-75
2022/07/11 08:27:03;;;;;;;;;;;32.50;72.00;;;;;;5093090;28;19904;-76
2022/07/11 08:29:29;;;;;;;;;;;32.10;73.00;;;;;;5093296;28;19911;-75
2022/07/11 08:31:55;;;;;;;;;;;32.50;75.70;;;;;;5091772;28;20276;-74
2022/07/11 08:34:21;;;;;;;;;;;32.90;77.60;;;;;;5093431;28;19904;-76
2022/07/11 08:36:46;;;;;;;;;;;33.40;77.20;;;;;;5093197;28;20371;-75
2022/07/11 08:39:12;;;;;;;;;;;33.90;77.30;;;;;;5093637;28;19904;-75
2022/07/11 08:41:42;;;;;;;;;;;33.90;77.50;;;;;;5093150;28;19911;-75
2022/07/11 08:44:08;;;;;;;;;;;34.00;78.30;;;;;;5093371;28;19940;-75
2022/07/11 08:46:33;;;;;;;;;;;34.20;78.40;;;;;;5092859;28;19998;-75
2022/07/11 08:48:59;;;;;;;;;;;34.10;78.60;;;;;;5092576;28;19904;-75
2022/07/11 08:51:27;;;;;;;;;;;34.40;79.10;;;;;;5092655;28;20399;-75
2022/07/11 08:53:53;;;;;;;;;;;34.60;78.60;;;;;;5092558;28;19904;-75
2022/07/11 08:56:20;;;;;;;;;;;34.80;78.90;;;;;;5092644;28;20397;-75
2022/07/11 08:58:47;;;;;;;;;;;34.50;79.10;;;;;;5092892;28;19908;-75
2022/07/11 09:01:16;;;;;;;;;;;34.30;79.20;;;;;;5093178;28;19948;-75
2022/07/11 09:03:43;;;;;;;;;;;34.00;79.40;;;;;;5091575;28;20237;-75
2022/07/11 09:06:10;;;;;;;;;;;33.50;80.20;;;;;;5092090;28;19918;-75
2022/07/11 09:08:36;;;;;;;;;;;33.10;81.60;;;;;;5091978;28;19908;-75
2022/07/11 09:11:03;;;;;;;;;;;33.50;82.20;;;;;;5092320;28;19904;-75
2022/07/11 09:13:30;;;;;;;;;;;33.70;81.50;;;;;;5090504;28;20344;-75
2022/07/11 09:16:06;;;;;;;;;;;33.80;81.00;;;;;;5092209;28;19914;-75
2022/07/11 09:18:36;;;;;;;;;;;34.00;81.50;;;;;;5092771;28;19904;-74
2022/07/11 09:26:36;;;;;;;;;;;33.70;81.70;;;;;;5092659;28;20064;-74
2022/07/11 09:29:07;;;;;;;;;;;33.70;82.20;;;;;;5092089;28;19904;-75
2022/07/11 09:31:33;;;;;;;;;;;33.40;81.70;;;;;;5092259;28;19904;-75
2022/07/11 09:34:15;;;;;;;;;;;33.30;82.10;;;;;;5092713;28;19934;-74
2022/07/11 09:36:43;;;;;;;;;;;33.40;83.20;;;;;;5090781;28;19904;-74
2022/07/11 09:39:13;;;;;;;;;;;33.60;82.50;;;;;;5095730;28;20005;-74
2022/07/11 09:41:39;;;;;;;;;;;33.40;82.80;;;;;;5095364;28;20396;-74
2022/07/11 09:44:07;;;;;;;;;;;33.20;82.80;;;;;;5096102;28;19998;-76
2022/07/11 09:46:35;;;;;;;;;;;33.20;83.50;;;;;;5095963;28;19912;-76
2022/07/11 09:49:01;;;;;;;;;;;33.40;82.90;;;;;;5094683;28;19904;-76
2022/07/11 09:51:27;;;;;;;;;;;33.10;83.50;;;;;;5094361;28;19911;-75
2022/07/11 09:53:56;;;;;;;;;;;32.80;82.80;;;;;;5095479;28;19904;-75
2022/07/11 09:56:26;;;;;;;;;;;32.40;84.90;;;;;;5094256;28;20273;-75
2022/07/11 09:58:59;;;;;;;;;;;32.30;85.50;;;;;;5095309;28;19904;-74
2022/07/11 10:01:26;;;;;;;;;;;32.00;86.50;;;;;;5095441;28;19904;-75
2022/07/11 10:03:52;;;;;;;;;;;32.00;87.00;;;;;;5095260;28;19919;-75
2022/07/11 10:06:18;;;;;;;;;;;32.10;87.20;;;;;;5095177;28;19924;-75
2022/07/11 10:08:45;;;;;;;;;;;32.00;87.50;;;;;;5095333;28;20224;-75
2022/07/11 10:11:11;;;;;;;;;;;31.70;87.90;;;;;;5095573;28;19988;-75
2022/07/11 10:13:37;;;;;;;;;;;31.60;88.90;;;;;;5094915;28;19931;-74
2022/07/11 10:16:08;;;;;;;;;;;31.30;89.60;;;;;;5095137;28;19922;-74
2022/07/11 10:18:54;;;;;;;;;;;31.20;90.60;;;;;;5095611;28;20324;-74
2022/07/11 10:21:27;;;;;;;;;;;31.00;91.00;;;;;;5094719;28;19911;-74
2022/07/11 10:24:07;;;;;;;;;;;30.70;91.90;;;;;;5095480;28;20072;-74
2022/07/11 10:26:37;;;;;;;;;;;30.90;91.90;;;;;;5095153;28;19912;-74
2022/07/11 10:29:09;;;;;;;;;;;31.20;91.90;;;;;;5095134;28;19904;-75
2022/07/11 10:31:35;;;;;;;;;;;31.00;92.30;;;;;;5095187;28;20268;-74
2022/07/11 10:34:10;;;;;;;;;;;30.80;92.80;;;;;;5095082;28;19904;-74
2022/07/11 10:36:40;;;;;;;;;;;30.70;93.50;;;;;;5095401;28;20329;-75
2022/07/11 10:39:12;;;;;;;;;;;31.10;93.50;;;;;;5095124;28;19904;-75
2022/07/11 10:41:38;;;;;;;;;;;31.00;93.60;;;;;;5095283;28;20003;-75
2022/07/11 10:44:04;;;;;;;;;;;31.00;93.90;;;;;;5095325;28;20363;-75
2022/07/11 10:46:30;;;;;;;;;;;31.20;93.80;;;;;;5094926;28;19965;-75
2022/07/11 10:48:58;;;;;;;;;;;31.20;93.90;;;;;;5094834;28;19922;-75
2022/07/11 10:51:43;;;;;;;;;;;31.00;94.20;;;;;;5094260;28;20324;-74
2022/07/11 10:54:27;;;;;;;;;;;30.80;94.50;;;;;;5094655;28;20348;-76
2022/07/11 10:56:53;;;;;;;;;;;30.40;95.30;;;;;;5095101;28;19904;-74
2022/07/11 10:59:19;;;;;;;;;;;30.40;96.00;;;;;;5094839;28;19904;-74
2022/07/11 11:02:04;;;;;;;;;;;30.30;96.00;;;;;;5094783;28;19908;-74
2022/07/11 11:04:47;;;;;;;;;;;30.40;96.50;;;;;;5094537;28;19904;-74
2022/07/11 11:07:28;;;;;;;;;;;30.40;97.30;;;;;;5094450;28;19919;-75
2022/07/11 11:09:54;;;;;;;;;;;30.30;97.60;;;;;;5095180;28;19904;-75
2022/07/11 11:12:20;;;;;;;;;;;30.20;99.00;;;;;;5092811;28;19911;-74
2022/07/11 11:14:46;;;;;;;;;;;30.40;99.60;;;;;;5095635;28;20080;-75
2022/07/11 11:17:35;;;;;;;;;;;30.50;99.20;;;;;;5094897;28;20417;-75
2022/07/11 11:20:01;;;;;;;;;;;30.60;98.40;;;;;;5087051;28;19970;-75
2022/07/11 11:22:28;;;;;;;;;;;30.30;99.30;;;;;;5093264;28;19904;-75
2022/07/11 11:24:55;;;;;;;;;;;29.90;99.60;;;;;;5093194;28;19912;-75
2022/07/11 11:27:22;;;;;;;;;;;29.60;99.90;;;;;;5094390;28;20013;-75
2022/07/11 11:29:49;;;;;;;;;;;29.10;99.90;;;;;;5094573;28;20362;-75
2022/07/11 11:32:15;;;;;;;;;;;29.10;99.90;;;;;;5094718;28;19907;-75
2022/07/11 11:34:41;;;;;;;;;;;29.40;99.90;;;;;;5094383;28;19930;-75
2022/07/11 11:37:07;;;;;;;;;;;29.80;99.90;;;;;;5094319;28;20372;-75
2022/07/11 11:39:40;;;;;;;;;;;30.10;99.90;;;;;;5094362;28;19911;-75
2022/07/11 11:42:11;;;;;;;;;;;30.40;99.90;;;;;;5094617;28;19961;-75
2022/07/11 11:44:57;;;;;;;;;;;30.40;99.90;;;;;;5092907;28;19912;-75
2022/07/11 11:47:23;;;;;;;;;;;30.30;99.90;;;;;;5093577;28;20405;-75
2022/07/11 11:49:49;;;;;;;;;;;30.30;99.90;;;;;;5093862;28;19904;-75
2022/07/11 11:52:16;;;;;;;;;;;30.30;99.90;;;;;;5094225;28;19904;-75
2022/07/11 11:54:42;;;;;;;;;;;30.30;99.90;;;;;;5093700;28;19923;-75
2022/07/11 11:57:10;;;;;;;;;;;30.40;99.90;;;;;;5093807;28;19911;-75
2022/07/11 11:59:37;;;;;;;;;;;30.40;99.90;;;;;;5093391;28;19923;-75
2022/07/11 12:02:03;;;;;;;;;;;30.40;99.90;;;;;;5093283;28;19904;-75
2022/07/11 12:04:32;;;;;;;;;;;30.50;99.90;;;;;;5093564;28;19904;-74
2022/07/11 12:07:01;;;;;;;;;;;30.60;99.90;;;;;;5093854;28;20355;-74
2022/07/11 12:14:56;;;;;;;;;;;30.60;99.90;;;;;;5094056;28;19911;-74
2022/07/11 12:17:26;;;;;;;;;;;30.40;99.90;;;;;;5093433;28;19952;-74
2022/07/11 12:19:52;;;;;;;;;;;30.60;99.90;;;;;;5094073;28;19904;-74
2022/07/11 12:22:18;;;;;;;;;;;30.70;99.90;;;;;;5093684;28;20052;-74
2022/07/11 12:24:48;;;;;;;;;;;30.90;98.90;;;;;;5093568;28;19912;-74
2022/07/11 12:27:19;;;;;;;;;;;30.60;99.10;;;;;;5093833;28;19989;-74
2022/07/11 12:29:50;;;;;;;;;;;30.90;98.90;;;;;;5092035;28;19904;-74
2022/07/11 12:32:16;;;;;;;;;;;30.80;99.50;;;;;;5092136;28;20003;-74
2022/07/11 12:34:46;;;;;;;;;;;31.00;98.90;;;;;;5093242;28;19949;-74
2022/07/11 12:37:13;;;;;;;;;;;30.80;98.60;;;;;;5093484;28;20331;-75
2022/07/11 12:39:40;;;;;;;;;;;30.80;99.50;;;;;;5093562;28;19966;-74
2022/07/11 12:42:23;;;;;;;;;;;30.80;99.90;;;;;;5093301;28;19908;-74
2022/07/11 12:44:59;;;;;;;;;;;30.90;99.90;;;;;;5093036;28;19912;-74
2022/07/11 12:47:27;;;;;;;;;;;30.90;99.90;;;;;;5093634;28;19930;-74
2022/07/11 12:49:52;;;;;;;;;;;30.90;99.10;;;;;;5092926;28;19904;-75
2022/07/11 12:52:18;;;;;;;;;;;30.30;99.20;;;;;;5092864;28;19927;-75
2022/07/11 12:54:44;;;;;;;;;;;30.60;99.90;;;;;;5093182;28;19904;-75
2022/07/11 12:57:15;;;;;;;;;;;30.60;99.10;;;;;;5091668;28;20009;-75
2022/07/11 12:59:41;;;;;;;;;;;30.80;99.50;;;;;;5093330;28;19911;-73
2022/07/11 13:02:08;;;;;;;;;;;31.10;99.00;;;;;;5092777;28;19916;-76
2022/07/11 13:04:46;;;;;;;;;;;31.20;97.70;;;;;;5092572;28;19919;-74
2022/07/11 13:10:22;;;;;;;;;;;31.10;97.90;;;;;;5092879;28;19915;-74
2022/07/11 13:12:49;;;;;;;;;;;30.80;98.60;;;;;;5094179;28;19927;-74
2022/07/11 13:15:17;;;;;;;;;;;30.90;98.50;;;;;;5096817;28;19930;-74
2022/07/11 13:17:43;;;;;;;;;;;31.10;97.90;;;;;;5097768;28;19904;-74
2022/07/11 13:20:19;;;;;;;;;;;31.40;97.40;;;;;;5097225;28;19995;-74
2022/07/11 13:22:46;;;;;;;;;;;31.50;96.10;;;;;;5097290;28;19926;-74
2022/07/11 13:25:12;;;;;;;;;;;31.30;96.80;;;;;;5095639;28;20368;-74
2022/07/11 13:27:42;;;;;;;;;;;31.30;97.40;;;;;;5097009;28;20003;-74
2022/07/11 13:30:12;;;;;;;;;;;31.50;96.90;;;;;;5097021;28;19911;-74
2022/07/11 13:32:39;;;;;;;;;;;31.60;96.10;;;;;;5097000;28;19904;-74
2022/07/11 13:35:05;;;;;;;;;;;31.70;95.50;;;;;;5097014;28;19973;-74
2022/07/11 13:37:31;;;;;;;;;;;31.60;95.30;;;;;;5096857;28;19904;-74
2022/07/11 13:39:57;;;;;;;;;;;31.50;95.70;;;;;;5096673;28;20011;-73
2022/07/11 13:42:23;;;;;;;;;;;31.30;96.00;;;;;;5096613;28;20003;-74
2022/07/11 13:44:49;;;;;;;;;;;31.10;95.70;;;;;;5096677;28;19908;-74
2022/07/11 13:47:15;;;;;;;;;;;31.20;96.00;;;;;;5096819;28;19915;-75
2022/07/11 13:49:42;;;;;;;;;;;31.10;95.60;;;;;;5095246;28;19904;-75
2022/07/11 13:52:07;;;;;;;;;;;31.00;95.80;;;;;;5094725;28;19926;-75
2022/07/11 13:54:33;;;;;;;;;;;31.10;95.30;;;;;;5096143;28;20356;-75
2022/07/11 13:56:59;;;;;;;;;;;31.10;95.10;;;;;;5096063;28;19911;-75
2022/07/11 13:59:25;;;;;;;;;;;31.20;94.10;;;;;;5094393;28;20258;-74
2022/07/11 14:01:51;;;;;;;;;;;31.10;94.00;;;;;;5096362;28;19904;-74
2022/07/11 14:04:17;;;;;;;;;;;31.10;94.50;;;;;;5095677;28;19915;-74
2022/07/11 14:06:42;;;;;;;;;;;31.20;94.70;;;;;;5096228;28;19970;-74
2022/07/11 14:09:08;;;;;;;;;;;31.10;94.50;;;;;;5095755;28;20006;-74
2022/07/11 14:11:34;;;;;;;;;;;31.30;94.50;;;;;;5095530;28;19911;-75
2022/07/11 14:14:00;;;;;;;;;;;31.30;94.40;;;;;;5096157;28;19977;-75
2022/07/11 14:16:26;;;;;;;;;;;31.50;93.70;;;;;;5095739;28;19911;-75
2022/07/11 14:18:52;;;;;;;;;;;31.60;93.00;;;;;;5094107;28;19953;-75
2022/07/11 14:21:17;;;;;;;;;;;31.50;93.50;;;;;;5095446;28;19912;-74
2022/07/11 14:23:45;;;;;;;;;;;31.30;94.20;;;;;;5095309;28;19991;-75
2022/07/11 14:26:11;;;;;;;;;;;31.30;94.40;;;;;;5095027;28;19912;-75
2022/07/11 14:28:37;;;;;;;;;;;31.50;93.30;;;;;;5095067;28;20028;-74
2022/07/11 14:31:03;;;;;;;;;;;31.40;93.30;;;;;;5095123;28;19904;-75
2022/07/11 14:33:29;;;;;;;;;;;31.60;93.40;;;;;;5095654;28;19911;-75